sensor_id;sensor_type;location;lat;lon;timestamp;P1;durP1;ratioP1;P2;durP2;ratioP2
9310;SDS011;4694;52.464;13.480;2023-12-20T00:00:19;10.73;;;5.75;;
9310;SDS011;4694;52.464;13.480;2023-12-20T00:02:46;9.35;;;6.38;;
9310;SDS011;4694;52.464;13.480;2023-12-20T00:05:13;9.30;;;6.40;;
9310;SDS011;4694;52.464;13.480;2023-12-20T00:07:39;9.85;;;6.60;;
9310;SDS011;4694;52.464;13.480;2023-12-20T00:10:06;11.55;;;8.10;;
9310;SDS011;4694;52.464;13.480;2023-12-20T00:12:33;12.70;;;7.05;;
9310;SDS011;4694;52.464;13.480;2023-12-20T00:15:01;10.07;;;6.78;;
9310;SDS011;4694;52.464;13.480;2023-12-20T00:17:28;10.95;;;6.75;;
9310;SDS011;4694;52.464;13.480;2023-12-20T00:19:55;11.63;;;6.93;;
9310;SDS011;4694;52.464;13.480;2023-12-20T00:22:21;8.98;;;6.80;;
9310;SDS011;4694;52.464;13.480;2023-12-20T00:24:48;10.38;;;7.55;;
9310;SDS011;4694;52.464;13.480;2023-12-20T00:27:14;8.90;;;6.68;;
9310;SDS011;4694;52.464;13.480;2023-12-20T00:29:41;10.77;;;6.68;;
9310;SDS011;4694;52.464;13.480;2023-12-20T00:32:14;8.48;;;6.10;;
9310;SDS011;4694;52.464;13.480;2023-12-20T00:34:40;8.40;;;5.88;;
9310;SDS011;4694;52.464;13.480;2023-12-20T00:37:07;9.25;;;5.32;;
9310;SDS011;4694;52.464;13.480;2023-12-20T00:39:33;9.07;;;5.93;;
9310;SDS011;4694;52.464;13.480;2023-12-20T00:42:00;8.05;;;5.72;;
9310;SDS011;4694;52.464;13.480;2023-12-20T00:44:27;11.93;;;6.68;;
9310;SDS011;4694;52.464;13.480;2023-12-20T00:46:53;10.98;;;5.97;;
9310;SDS011;4694;52.464;13.480;2023-12-20T00:49:21;10.57;;;5.93;;
9310;SDS011;4694;52.464;13.480;2023-12-20T00:51:48;9.85;;;6.22;;
9310;SDS011;4694;52.464;13.480;2023-12-20T00:54:15;11.23;;;6.55;;
9310;SDS011;4694;52.464;13.480;2023-12-20T00:56:42;13.45;;;7.90;;
9310;SDS011;4694;52.464;13.480;2023-12-20T00:59:08;10.13;;;6.20;;
9310;SDS011;4694;52.464;13.480;2023-12-20T01:01:35;10.45;;;6.43;;
9310;SDS011;4694;52.464;13.480;2023-12-20T01:04:03;8.85;;;5.40;;
9310;SDS011;4694;52.464;13.480;2023-12-20T01:06:31;11.38;;;6.40;;
9310;SDS011;4694;52.464;13.480;2023-12-20T01:08:58;9.38;;;6.40;;
9310;SDS011;4694;52.464;13.480;2023-12-20T01:11:24;8.60;;;5.93;;
9310;SDS011;4694;52.464;13.480;2023-12-20T01:13:51;10.55;;;5.90;;
9310;SDS011;4694;52.464;13.480;2023-12-20T01:16:17;9.85;;;6.03;;
9310;SDS011;4694;52.464;13.480;2023-12-20T01:18:44;9.73;;;6.78;;
9310;SDS011;4694;52.464;13.480;2023-12-20T01:21:11;8.40;;;5.18;;
9310;SDS011;4694;52.464;13.480;2023-12-20T01:23:39;9.75;;;5.70;;
9310;SDS011;4694;52.464;13.480;2023-12-20T01:26:06;10.07;;;5.97;;
9310;SDS011;4694;52.464;13.480;2023-12-20T01:28:33;12.65;;;5.90;;
9310;SDS011;4694;52.464;13.480;2023-12-20T01:31:00;9.38;;;5.82;;
9310;SDS011;4694;52.464;13.480;2023-12-20T01:33:26;8.57;;;5.72;;
9310;SDS011;4694;52.464;13.480;2023-12-20T01:35:53;9.32;;;5.45;;
9310;SDS011;4694;52.464;13.480;2023-12-20T01:38:19;9.90;;;6.50;;
9310;SDS011;4694;52.464;13.480;2023-12-20T01:40:47;11.18;;;5.93;;
9310;SDS011;4694;52.464;13.480;2023-12-20T01:43:14;10.75;;;6.88;;
9310;SDS011;4694;52.464;13.480;2023-12-20T01:45:41;10.40;;;6.00;;
9310;SDS011;4694;52.464;13.480;2023-12-20T01:48:08;8.68;;;5.65;;
9310;SDS011;4694;52.464;13.480;2023-12-20T01:50:36;11.38;;;6.18;;
9310;SDS011;4694;52.464;13.480;2023-12-20T01:53:03;8.80;;;5.72;;
9310;SDS011;4694;52.464;13.480;2023-12-20T01:55:33;6.60;;;4.25;;
9310;SDS011;4694;52.464;13.480;2023-12-20T01:58:03;5.93;;;4.40;;
9310;SDS011;4694;52.464;13.480;2023-12-20T02:00:31;5.80;;;4.35;;
9310;SDS011;4694;52.464;13.480;2023-12-20T02:02:58;7.60;;;5.25;;
9310;SDS011;4694;52.464;13.480;2023-12-20T02:05:27;7.22;;;4.78;;
9310;SDS011;4694;52.464;13.480;2023-12-20T02:11:17;9.75;;;5.05;;
9310;SDS011;4694;52.464;13.480;2023-12-20T02:13:45;7.53;;;4.35;;
9310;SDS011;4694;52.464;13.480;2023-12-20T02:16:12;5.88;;;4.25;;
9310;SDS011;4694;52.464;13.480;2023-12-20T02:18:39;6.47;;;4.15;;
9310;SDS011;4694;52.464;13.480;2023-12-20T02:21:05;6.10;;;4.70;;
9310;SDS011;4694;52.464;13.480;2023-12-20T02:23:33;7.82;;;5.70;;
9310;SDS011;4694;52.464;13.480;2023-12-20T02:26:00;9.52;;;6.47;;
9310;SDS011;4694;52.464;13.480;2023-12-20T02:28:27;9.73;;;7.55;;
9310;SDS011;4694;52.464;13.480;2023-12-20T02:30:54;10.13;;;7.40;;
9310;SDS011;4694;52.464;13.480;2023-12-20T02:33:20;12.57;;;8.35;;
9310;SDS011;4694;52.464;13.480;2023-12-20T02:35:47;8.27;;;5.40;;
9310;SDS011;4694;52.464;13.480;2023-12-20T02:38:14;9.93;;;5.65;;
9310;SDS011;4694;52.464;13.480;2023-12-20T02:40:42;9.73;;;7.45;;
9310;SDS011;4694;52.464;13.480;2023-12-20T02:43:08;12.20;;;8.65;;
9310;SDS011;4694;52.464;13.480;2023-12-20T02:45:35;11.80;;;8.32;;
9310;SDS011;4694;52.464;13.480;2023-12-20T02:48:03;12.48;;;8.30;;
9310;SDS011;4694;52.464;13.480;2023-12-20T02:50:30;10.70;;;7.45;;
9310;SDS011;4694;52.464;13.480;2023-12-20T02:52:57;12.15;;;7.55;;
9310;SDS011;4694;52.464;13.480;2023-12-20T02:55:23;12.32;;;7.95;;
9310;SDS011;4694;52.464;13.480;2023-12-20T02:57:51;12.70;;;7.72;;
9310;SDS011;4694;52.464;13.480;2023-12-20T03:00:18;13.57;;;9.27;;
9310;SDS011;4694;52.464;13.480;2023-12-20T03:02:44;12.40;;;6.38;;
9310;SDS011;4694;52.464;13.480;2023-12-20T03:05:11;11.32;;;6.97;;
9310;SDS011;4694;52.464;13.480;2023-12-20T03:07:37;12.88;;;6.93;;
9310;SDS011;4694;52.464;13.480;2023-12-20T03:10:05;8.68;;;5.93;;
9310;SDS011;4694;52.464;13.480;2023-12-20T03:12:32;13.82;;;7.18;;
9310;SDS011;4694;52.464;13.480;2023-12-20T03:15:00;10.32;;;6.95;;
9310;SDS011;4694;52.464;13.480;2023-12-20T03:17:27;11.85;;;5.88;;
9310;SDS011;4694;52.464;13.480;2023-12-20T03:19:53;8.13;;;4.80;;
9310;SDS011;4694;52.464;13.480;2023-12-20T03:22:20;7.53;;;4.28;;
9310;SDS011;4694;52.464;13.480;2023-12-20T03:24:47;7.93;;;4.35;;
9310;SDS011;4694;52.464;13.480;2023-12-20T03:27:14;8.05;;;4.40;;
9310;SDS011;4694;52.464;13.480;2023-12-20T03:29:40;8.70;;;3.67;;
9310;SDS011;4694;52.464;13.480;2023-12-20T03:32:08;7.13;;;3.97;;
9310;SDS011;4694;52.464;13.480;2023-12-20T03:34:35;6.57;;;3.75;;
9310;SDS011;4694;52.464;13.480;2023-12-20T03:37:02;9.70;;;3.67;;
9310;SDS011;4694;52.464;13.480;2023-12-20T03:39:28;8.43;;;4.38;;
9310;SDS011;4694;52.464;13.480;2023-12-20T03:41:55;7.30;;;4.07;;
9310;SDS011;4694;52.464;13.480;2023-12-20T03:44:22;11.00;;;4.50;;
9310;SDS011;4694;52.464;13.480;2023-12-20T03:46:48;9.13;;;3.35;;
9310;SDS011;4694;52.464;13.480;2023-12-20T03:49:16;9.98;;;3.08;;
9310;SDS011;4694;52.464;13.480;2023-12-20T03:51:43;6.53;;;3.17;;
9310;SDS011;4694;52.464;13.480;2023-12-20T03:54:09;8.10;;;2.78;;
9310;SDS011;4694;52.464;13.480;2023-12-20T03:56:36;5.32;;;2.22;;
9310;SDS011;4694;52.464;13.480;2023-12-20T03:59:02;7.82;;;3.17;;
9310;SDS011;4694;52.464;13.480;2023-12-20T04:01:29;14.77;;;2.40;;
9310;SDS011;4694;52.464;13.480;2023-12-20T04:03:56;14.90;;;2.67;;
9310;SDS011;4694;52.464;13.480;2023-12-20T04:06:24;8.13;;;2.35;;
9310;SDS011;4694;52.464;13.480;2023-12-20T04:08:52;7.20;;;2.28;;
9310;SDS011;4694;52.464;13.480;2023-12-20T04:11:18;7.20;;;2.47;;
9310;SDS011;4694;52.464;13.480;2023-12-20T04:13:45;5.78;;;1.80;;
9310;SDS011;4694;52.464;13.480;2023-12-20T04:16:12;3.38;;;1.25;;
9310;SDS011;4694;52.464;13.480;2023-12-20T04:18:38;7.72;;;1.88;;
9310;SDS011;4694;52.464;13.480;2023-12-20T04:21:05;12.07;;;3.47;;
9310;SDS011;4694;52.464;13.480;2023-12-20T04:23:33;6.10;;;4.40;;
9310;SDS011;4694;52.464;13.480;2023-12-20T04:26:00;10.82;;;3.17;;
9310;SDS011;4694;52.464;13.480;2023-12-20T04:28:27;9.25;;;3.78;;
9310;SDS011;4694;52.464;13.480;2023-12-20T04:30:55;7.78;;;3.95;;
9310;SDS011;4694;52.464;13.480;2023-12-20T04:33:22;4.45;;;2.00;;
9310;SDS011;4694;52.464;13.480;2023-12-20T04:35:48;6.00;;;1.80;;
9310;SDS011;4694;52.464;13.480;2023-12-20T04:38:15;12.70;;;2.85;;
9310;SDS011;4694;52.464;13.480;2023-12-20T04:40:43;6.38;;;2.00;;
9310;SDS011;4694;52.464;13.480;2023-12-20T04:43:10;7.47;;;1.88;;
9310;SDS011;4694;52.464;13.480;2023-12-20T04:45:36;7.40;;;3.33;;
9310;SDS011;4694;52.464;13.480;2023-12-20T04:48:05;15.57;;;3.28;;
9310;SDS011;4694;52.464;13.480;2023-12-20T04:50:32;9.75;;;3.10;;
9310;SDS011;4694;52.464;13.480;2023-12-20T04:52:59;7.90;;;2.40;;
9310;SDS011;4694;52.464;13.480;2023-12-20T04:55:25;5.43;;;3.45;;
9310;SDS011;4694;52.464;13.480;2023-12-20T04:57:53;11.05;;;2.58;;
9310;SDS011;4694;52.464;13.480;2023-12-20T05:00:21;8.35;;;3.53;;
9310;SDS011;4694;52.464;13.480;2023-12-20T05:02:48;5.38;;;1.92;;
9310;SDS011;4694;52.464;13.480;2023-12-20T05:05:14;5.95;;;1.73;;
9310;SDS011;4694;52.464;13.480;2023-12-20T05:07:42;5.40;;;2.10;;
9310;SDS011;4694;52.464;13.480;2023-12-20T05:10:09;6.60;;;2.00;;
9310;SDS011;4694;52.464;13.480;2023-12-20T05:12:36;6.35;;;2.08;;
9310;SDS011;4694;52.464;13.480;2023-12-20T05:15:05;14.13;;;3.05;;
9310;SDS011;4694;52.464;13.480;2023-12-20T05:17:32;6.80;;;3.33;;
9310;SDS011;4694;52.464;13.480;2023-12-20T05:19:59;8.07;;;4.32;;
9310;SDS011;4694;52.464;13.480;2023-12-20T05:22:26;9.45;;;3.45;;
9310;SDS011;4694;52.464;13.480;2023-12-20T05:24:53;7.97;;;2.85;;
9310;SDS011;4694;52.464;13.480;2023-12-20T05:27:20;9.30;;;3.58;;
9310;SDS011;4694;52.464;13.480;2023-12-20T05:29:47;14.70;;;3.83;;
9310;SDS011;4694;52.464;13.480;2023-12-20T05:32:15;19.50;;;5.97;;
9310;SDS011;4694;52.464;13.480;2023-12-20T05:34:42;11.85;;;5.68;;
9310;SDS011;4694;52.464;13.480;2023-12-20T05:37:08;12.45;;;2.50;;
9310;SDS011;4694;52.464;13.480;2023-12-20T05:39:35;10.23;;;3.45;;
9310;SDS011;4694;52.464;13.480;2023-12-20T05:42:01;6.00;;;2.45;;
9310;SDS011;4694;52.464;13.480;2023-12-20T05:44:28;8.63;;;5.03;;
9310;SDS011;4694;52.464;13.480;2023-12-20T05:46:55;8.90;;;3.30;;
9310;SDS011;4694;52.464;13.480;2023-12-20T05:49:23;7.88;;;2.45;;
9310;SDS011;4694;52.464;13.480;2023-12-20T05:51:49;10.20;;;1.70;;
9310;SDS011;4694;52.464;13.480;2023-12-20T05:54:16;13.18;;;3.03;;
9310;SDS011;4694;52.464;13.480;2023-12-20T05:56:43;9.48;;;2.58;;
9310;SDS011;4694;52.464;13.480;2023-12-20T05:59:09;6.55;;;1.95;;
9310;SDS011;4694;52.464;13.480;2023-12-20T06:01:36;12.43;;;1.42;;
9310;SDS011;4694;52.464;13.480;2023-12-20T06:04:03;7.35;;;1.80;;
9310;SDS011;4694;52.464;13.480;2023-12-20T06:06:31;6.97;;;1.67;;
9310;SDS011;4694;52.464;13.480;2023-12-20T06:08:59;10.45;;;1.88;;
9310;SDS011;4694;52.464;13.480;2023-12-20T06:11:27;13.27;;;2.72;;
9310;SDS011;4694;52.464;13.480;2023-12-20T06:13:54;5.00;;;1.63;;
9310;SDS011;4694;52.464;13.480;2023-12-20T06:16:21;10.65;;;2.97;;
9310;SDS011;4694;52.464;13.480;2023-12-20T06:18:47;14.18;;;5.97;;
9310;SDS011;4694;52.464;13.480;2023-12-20T06:21:14;12.25;;;3.90;;
9310;SDS011;4694;52.464;13.480;2023-12-20T06:23:42;17.02;;;5.85;;
9310;SDS011;4694;52.464;13.480;2023-12-20T06:26:09;12.85;;;4.68;;
9310;SDS011;4694;52.464;13.480;2023-12-20T06:28:35;15.68;;;4.55;;
9310;SDS011;4694;52.464;13.480;2023-12-20T06:31:03;10.80;;;3.85;;
9310;SDS011;4694;52.464;13.480;2023-12-20T06:33:29;8.13;;;1.90;;
9310;SDS011;4694;52.464;13.480;2023-12-20T06:35:57;9.73;;;2.13;;
9310;SDS011;4694;52.464;13.480;2023-12-20T06:38:24;9.48;;;2.55;;
9310;SDS011;4694;52.464;13.480;2023-12-20T06:40:52;9.02;;;2.08;;
9310;SDS011;4694;52.464;13.480;2023-12-20T06:43:23;8.80;;;1.63;;
9310;SDS011;4694;52.464;13.480;2023-12-20T06:45:50;12.38;;;2.55;;
9310;SDS011;4694;52.464;13.480;2023-12-20T06:48:16;8.10;;;1.33;;
9310;SDS011;4694;52.464;13.480;2023-12-20T06:50:43;6.03;;;1.60;;
9310;SDS011;4694;52.464;13.480;2023-12-20T06:53:10;5.78;;;1.90;;
9310;SDS011;4694;52.464;13.480;2023-12-20T06:55:36;9.55;;;3.03;;
9310;SDS011;4694;52.464;13.480;2023-12-20T06:58:05;8.15;;;2.28;;
9310;SDS011;4694;52.464;13.480;2023-12-20T07:00:31;5.55;;;1.75;;
9310;SDS011;4694;52.464;13.480;2023-12-20T07:02:58;8.32;;;2.08;;
9310;SDS011;4694;52.464;13.480;2023-12-20T07:05:25;3.25;;;1.30;;
9310;SDS011;4694;52.464;13.480;2023-12-20T07:07:52;4.78;;;1.67;;
9310;SDS011;4694;52.464;13.480;2023-12-20T07:10:18;9.10;;;1.83;;
9310;SDS011;4694;52.464;13.480;2023-12-20T07:12:45;10.07;;;3.20;;
9310;SDS011;4694;52.464;13.480;2023-12-20T07:15:15;6.13;;;1.60;;
9310;SDS011;4694;52.464;13.480;2023-12-20T07:17:41;7.13;;;1.73;;
9310;SDS011;4694;52.464;13.480;2023-12-20T07:20:09;8.32;;;1.73;;
9310;SDS011;4694;52.464;13.480;2023-12-20T07:22:36;5.38;;;1.67;;
9310;SDS011;4694;52.464;13.480;2023-12-20T07:25:03;6.13;;;3.28;;
9310;SDS011;4694;52.464;13.480;2023-12-20T07:27:30;9.18;;;1.90;;
9310;SDS011;4694;52.464;13.480;2023-12-20T07:29:56;4.18;;;1.75;;
9310;SDS011;4694;52.464;13.480;2023-12-20T07:32:24;13.63;;;2.22;;
9310;SDS011;4694;52.464;13.480;2023-12-20T07:34:52;10.13;;;1.88;;
9310;SDS011;4694;52.464;13.480;2023-12-20T07:37:19;7.63;;;1.95;;
9310;SDS011;4694;52.464;13.480;2023-12-20T07:39:47;9.82;;;1.80;;
9310;SDS011;4694;52.464;13.480;2023-12-20T07:42:14;8.23;;;2.53;;
9310;SDS011;4694;52.464;13.480;2023-12-20T07:44:40;21.25;;;3.03;;
9310;SDS011;4694;52.464;13.480;2023-12-20T07:47:10;7.18;;;2.25;;
9310;SDS011;4694;52.464;13.480;2023-12-20T07:49:41;10.18;;;2.20;;
9310;SDS011;4694;52.464;13.480;2023-12-20T07:52:08;9.23;;;2.83;;
9310;SDS011;4694;52.464;13.480;2023-12-20T07:54:37;3.78;;;2.38;;
9310;SDS011;4694;52.464;13.480;2023-12-20T07:57:04;6.68;;;1.65;;
9310;SDS011;4694;52.464;13.480;2023-12-20T07:59:31;7.45;;;1.92;;
9310;SDS011;4694;52.464;13.480;2023-12-20T08:01:57;4.57;;;1.60;;
9310;SDS011;4694;52.464;13.480;2023-12-20T08:04:24;7.80;;;2.67;;
9310;SDS011;4694;52.464;13.480;2023-12-20T08:06:52;5.47;;;1.52;;
9310;SDS011;4694;52.464;13.480;2023-12-20T08:09:18;4.93;;;1.58;;
9310;SDS011;4694;52.464;13.480;2023-12-20T08:11:45;4.72;;;1.52;;
9310;SDS011;4694;52.464;13.480;2023-12-20T08:14:12;12.00;;;3.20;;
9310;SDS011;4694;52.464;13.480;2023-12-20T08:16:39;7.20;;;1.38;;
9310;SDS011;4694;52.464;13.480;2023-12-20T08:19:06;8.18;;;1.45;;
9310;SDS011;4694;52.464;13.480;2023-12-20T08:21:32;9.07;;;1.95;;
9310;SDS011;4694;52.464;13.480;2023-12-20T08:24:00;7.88;;;1.15;;
9310;SDS011;4694;52.464;13.480;2023-12-20T08:26:27;10.57;;;2.22;;
9310;SDS011;4694;52.464;13.480;2023-12-20T08:28:54;7.05;;;2.08;;
9310;SDS011;4694;52.464;13.480;2023-12-20T08:31:21;6.07;;;1.67;;
9310;SDS011;4694;52.464;13.480;2023-12-20T08:33:48;7.65;;;1.73;;
9310;SDS011;4694;52.464;13.480;2023-12-20T08:36:15;13.73;;;1.73;;
9310;SDS011;4694;52.464;13.480;2023-12-20T08:38:43;5.50;;;1.75;;
9310;SDS011;4694;52.464;13.480;2023-12-20T08:41:11;9.43;;;1.67;;
9310;SDS011;4694;52.464;13.480;2023-12-20T08:43:37;7.97;;;2.15;;
9310;SDS011;4694;52.464;13.480;2023-12-20T08:46:05;7.03;;;1.27;;
9310;SDS011;4694;52.464;13.480;2023-12-20T08:48:32;7.03;;;2.20;;
9310;SDS011;4694;52.464;13.480;2023-12-20T08:50:58;14.13;;;1.65;;
9310;SDS011;4694;52.464;13.480;2023-12-20T08:53:25;12.27;;;1.75;;
9310;SDS011;4694;52.464;13.480;2023-12-20T08:55:52;9.23;;;1.80;;
9310;SDS011;4694;52.464;13.480;2023-12-20T08:58:20;7.47;;;1.80;;
9310;SDS011;4694;52.464;13.480;2023-12-20T09:00:46;8.73;;;1.52;;
9310;SDS011;4694;52.464;13.480;2023-12-20T09:03:13;2.35;;;0.88;;
9310;SDS011;4694;52.464;13.480;2023-12-20T09:05:39;8.93;;;2.83;;
9310;SDS011;4694;52.464;13.480;2023-12-20T09:08:06;10.50;;;1.88;;
9310;SDS011;4694;52.464;13.480;2023-12-20T09:10:35;4.70;;;1.20;;
9310;SDS011;4694;52.464;13.480;2023-12-20T09:13:02;8.63;;;1.50;;
9310;SDS011;4694;52.464;13.480;2023-12-20T09:15:30;9.20;;;1.75;;
9310;SDS011;4694;52.464;13.480;2023-12-20T09:17:59;5.85;;;1.25;;
9310;SDS011;4694;52.464;13.480;2023-12-20T09:20:25;10.35;;;2.33;;
9310;SDS011;4694;52.464;13.480;2023-12-20T09:22:52;3.22;;;1.42;;
9310;SDS011;4694;52.464;13.480;2023-12-20T09:25:19;8.68;;;2.10;;
9310;SDS011;4694;52.464;13.480;2023-12-20T09:27:47;5.97;;;1.20;;
9310;SDS011;4694;52.464;13.480;2023-12-20T09:30:13;6.18;;;1.15;;
9310;SDS011;4694;52.464;13.480;2023-12-20T09:32:42;8.55;;;2.70;;
9310;SDS011;4694;52.464;13.480;2023-12-20T09:35:08;8.02;;;2.33;;
9310;SDS011;4694;52.464;13.480;2023-12-20T09:37:35;13.38;;;3.80;;
9310;SDS011;4694;52.464;13.480;2023-12-20T09:40:01;6.80;;;1.45;;
9310;SDS011;4694;52.464;13.480;2023-12-20T09:42:29;1.83;;;1.65;;
9310;SDS011;4694;52.464;13.480;2023-12-20T09:45:03;8.52;;;2.33;;
9310;SDS011;4694;52.464;13.480;2023-12-20T09:47:34;9.73;;;3.03;;
9310;SDS011;4694;52.464;13.480;2023-12-20T09:50:02;8.25;;;1.73;;
9310;SDS011;4694;52.464;13.480;2023-12-20T09:52:29;5.30;;;1.20;;
9310;SDS011;4694;52.464;13.480;2023-12-20T09:54:57;10.85;;;1.58;;
9310;SDS011;4694;52.464;13.480;2023-12-20T09:57:24;10.32;;;2.65;;
9310;SDS011;4694;52.464;13.480;2023-12-20T09:59:51;9.80;;;1.48;;
9310;SDS011;4694;52.464;13.480;2023-12-20T10:02:18;7.13;;;1.48;;
9310;SDS011;4694;52.464;13.480;2023-12-20T10:04:49;12.52;;;2.20;;
9310;SDS011;4694;52.464;13.480;2023-12-20T10:07:18;10.77;;;1.83;;
9310;SDS011;4694;52.464;13.480;2023-12-20T10:09:44;5.45;;;2.92;;
9310;SDS011;4694;52.464;13.480;2023-12-20T10:12:12;7.38;;;1.83;;
9310;SDS011;4694;52.464;13.480;2023-12-20T10:14:39;7.57;;;1.75;;
9310;SDS011;4694;52.464;13.480;2023-12-20T10:17:06;11.68;;;1.77;;
9310;SDS011;4694;52.464;13.480;2023-12-20T10:19:33;4.75;;;1.23;;
9310;SDS011;4694;52.464;13.480;2023-12-20T10:22:01;13.02;;;2.20;;
9310;SDS011;4694;52.464;13.480;2023-12-20T10:24:32;5.93;;;1.90;;
9310;SDS011;4694;52.464;13.480;2023-12-20T10:27:01;12.85;;;4.10;;
9310;SDS011;4694;52.464;13.480;2023-12-20T10:29:31;13.77;;;2.42;;
9310;SDS011;4694;52.464;13.480;2023-12-20T10:31:59;13.80;;;2.83;;
9310;SDS011;4694;52.464;13.480;2023-12-20T10:34:25;13.50;;;2.13;;
9310;SDS011;4694;52.464;13.480;2023-12-20T10:36:52;8.35;;;1.95;;
9310;SDS011;4694;52.464;13.480;2023-12-20T10:39:20;7.55;;;2.50;;
9310;SDS011;4694;52.464;13.480;2023-12-20T10:41:49;7.82;;;1.85;;
9310;SDS011;4694;52.464;13.480;2023-12-20T10:44:16;9.77;;;3.78;;
9310;SDS011;4694;52.464;13.480;2023-12-20T10:46:42;6.97;;;2.40;;
9310;SDS011;4694;52.464;13.480;2023-12-20T10:49:16;7.78;;;1.98;;
9310;SDS011;4694;52.464;13.480;2023-12-20T10:51:45;6.65;;;1.17;;
9310;SDS011;4694;52.464;13.480;2023-12-20T10:54:13;5.40;;;1.67;;
9310;SDS011;4694;52.464;13.480;2023-12-20T10:56:40;6.32;;;1.70;;
9310;SDS011;4694;52.464;13.480;2023-12-20T10:59:08;17.38;;;4.05;;
9310;SDS011;4694;52.464;13.480;2023-12-20T11:01:37;9.63;;;1.65;;
9310;SDS011;4694;52.464;13.480;2023-12-20T11:04:06;5.30;;;1.23;;
9310;SDS011;4694;52.464;13.480;2023-12-20T11:06:40;6.95;;;1.42;;
9310;SDS011;4694;52.464;13.480;2023-12-20T11:09:16;8.07;;;1.48;;
9310;SDS011;4694;52.464;13.480;2023-12-20T11:11:55;4.40;;;1.50;;
9310;SDS011;4694;52.464;13.480;2023-12-20T11:14:32;5.30;;;2.22;;
9310;SDS011;4694;52.464;13.480;2023-12-20T11:17:05;7.75;;;2.72;;
9310;SDS011;4694;52.464;13.480;2023-12-20T11:19:33;16.42;;;3.65;;
9310;SDS011;4694;52.464;13.480;2023-12-20T11:22:03;7.35;;;2.35;;
9310;SDS011;4694;52.464;13.480;2023-12-20T11:24:31;4.47;;;2.13;;
9310;SDS011;4694;52.464;13.480;2023-12-20T11:26:59;7.55;;;2.10;;
9310;SDS011;4694;52.464;13.480;2023-12-20T11:29:32;6.72;;;2.05;;
9310;SDS011;4694;52.464;13.480;2023-12-20T11:32:00;4.15;;;1.55;;
9310;SDS011;4694;52.464;13.480;2023-12-20T11:34:27;8.27;;;1.83;;
9310;SDS011;4694;52.464;13.480;2023-12-20T11:36:58;10.43;;;1.60;;
9310;SDS011;4694;52.464;13.480;2023-12-20T11:39:25;5.35;;;1.65;;
9310;SDS011;4694;52.464;13.480;2023-12-20T11:41:54;9.57;;;1.83;;
9310;SDS011;4694;52.464;13.480;2023-12-20T11:44:22;9.32;;;2.00;;
9310;SDS011;4694;52.464;13.480;2023-12-20T11:46:50;3.65;;;2.55;;
9310;SDS011;4694;52.464;13.480;2023-12-20T11:49:16;11.50;;;1.65;;
9310;SDS011;4694;52.464;13.480;2023-12-20T11:51:43;8.05;;;2.35;;
9310;SDS011;4694;52.464;13.480;2023-12-20T11:54:10;6.72;;;1.77;;
9310;SDS011;4694;52.464;13.480;2023-12-20T11:56:37;11.02;;;1.92;;
9310;SDS011;4694;52.464;13.480;2023-12-20T11:59:04;8.70;;;2.10;;
9310;SDS011;4694;52.464;13.480;2023-12-20T12:01:31;10.18;;;2.20;;
9310;SDS011;4694;52.464;13.480;2023-12-20T12:04:06;13.57;;;3.60;;
9310;SDS011;4694;52.464;13.480;2023-12-20T12:06:32;7.57;;;2.50;;
9310;SDS011;4694;52.464;13.480;2023-12-20T12:09:00;6.47;;;1.27;;
9310;SDS011;4694;52.464;13.480;2023-12-20T12:11:27;5.55;;;1.45;;
9310;SDS011;4694;52.464;13.480;2023-12-20T12:13:54;4.82;;;1.88;;
9310;SDS011;4694;52.464;13.480;2023-12-20T12:16:20;7.60;;;1.50;;
9310;SDS011;4694;52.464;13.480;2023-12-20T12:18:54;7.55;;;2.72;;
9310;SDS011;4694;52.464;13.480;2023-12-20T12:21:23;5.07;;;1.48;;
9310;SDS011;4694;52.464;13.480;2023-12-20T12:23:49;10.10;;;1.88;;
9310;SDS011;4694;52.464;13.480;2023-12-20T12:26:16;6.70;;;1.20;;
9310;SDS011;4694;52.464;13.480;2023-12-20T12:28:43;4.72;;;1.40;;
9310;SDS011;4694;52.464;13.480;2023-12-20T12:31:13;9.98;;;1.65;;
9310;SDS011;4694;52.464;13.480;2023-12-20T12:33:41;6.40;;;2.03;;
9310;SDS011;4694;52.464;13.480;2023-12-20T12:36:10;12.75;;;2.58;;
9310;SDS011;4694;52.464;13.480;2023-12-20T12:38:38;9.20;;;1.38;;
9310;SDS011;4694;52.464;13.480;2023-12-20T12:41:05;6.15;;;1.60;;
9310;SDS011;4694;52.464;13.480;2023-12-20T12:43:32;14.18;;;2.30;;
9310;SDS011;4694;52.464;13.480;2023-12-20T12:45:59;9.05;;;1.92;;
9310;SDS011;4694;52.464;13.480;2023-12-20T12:48:26;5.00;;;1.65;;
9310;SDS011;4694;52.464;13.480;2023-12-20T12:50:53;4.07;;;2.28;;
9310;SDS011;4694;52.464;13.480;2023-12-20T12:55:52;8.68;;;3.05;;
9310;SDS011;4694;52.464;13.480;2023-12-20T12:58:18;12.18;;;2.78;;
9310;SDS011;4694;52.464;13.480;2023-12-20T13:00:45;7.93;;;2.67;;
9310;SDS011;4694;52.464;13.480;2023-12-20T13:03:12;8.77;;;1.77;;
9310;SDS011;4694;52.464;13.480;2023-12-20T13:05:38;7.60;;;2.40;;
9310;SDS011;4694;52.464;13.480;2023-12-20T13:08:05;8.13;;;3.15;;
9310;SDS011;4694;52.464;13.480;2023-12-20T13:10:32;10.50;;;3.28;;
9310;SDS011;4694;52.464;13.480;2023-12-20T13:13:00;6.03;;;2.15;;
9310;SDS011;4694;52.464;13.480;2023-12-20T13:15:27;10.45;;;2.17;;
9310;SDS011;4694;52.464;13.480;2023-12-20T13:17:54;4.72;;;2.00;;
9310;SDS011;4694;52.464;13.480;2023-12-20T13:20:20;5.70;;;2.83;;
9310;SDS011;4694;52.464;13.480;2023-12-20T13:22:47;8.68;;;2.63;;
9310;SDS011;4694;52.464;13.480;2023-12-20T13:25:14;8.50;;;3.45;;
9310;SDS011;4694;52.464;13.480;2023-12-20T13:27:40;8.20;;;3.95;;
9310;SDS011;4694;52.464;13.480;2023-12-20T13:30:10;13.18;;;3.58;;
9310;SDS011;4694;52.464;13.480;2023-12-20T13:32:37;9.80;;;4.07;;
9310;SDS011;4694;52.464;13.480;2023-12-20T13:35:04;10.05;;;3.78;;
9310;SDS011;4694;52.464;13.480;2023-12-20T13:37:31;8.90;;;4.57;;
9310;SDS011;4694;52.464;13.480;2023-12-20T13:39:57;9.27;;;2.03;;
9310;SDS011;4694;52.464;13.480;2023-12-20T13:42:24;4.32;;;1.10;;
9310;SDS011;4694;52.464;13.480;2023-12-20T13:44:52;6.03;;;1.58;;
9310;SDS011;4694;52.464;13.480;2023-12-20T13:47:20;4.00;;;0.75;;
9310;SDS011;4694;52.464;13.480;2023-12-20T13:49:46;8.05;;;1.30;;
9310;SDS011;4694;52.464;13.480;2023-12-20T13:52:13;1.50;;;0.47;;
9310;SDS011;4694;52.464;13.480;2023-12-20T13:54:40;1.02;;;0.50;;
9310;SDS011;4694;52.464;13.480;2023-12-20T13:57:06;2.03;;;0.60;;
9310;SDS011;4694;52.464;13.480;2023-12-20T13:59:33;3.55;;;0.82;;
9310;SDS011;4694;52.464;13.480;2023-12-20T14:02:00;5.57;;;0.73;;
9310;SDS011;4694;52.464;13.480;2023-12-20T14:04:29;2.10;;;0.65;;
9310;SDS011;4694;52.464;13.480;2023-12-20T14:06:56;1.92;;;0.70;;
9310;SDS011;4694;52.464;13.480;2023-12-20T14:09:23;3.90;;;1.08;;
9310;SDS011;4694;52.464;13.480;2023-12-20T14:11:50;4.15;;;0.70;;
9310;SDS011;4694;52.464;13.480;2023-12-20T14:14:16;4.68;;;0.60;;
9310;SDS011;4694;52.464;13.480;2023-12-20T14:16:43;1.88;;;0.50;;
9310;SDS011;4694;52.464;13.480;2023-12-20T14:19:11;1.80;;;1.55;;
9310;SDS011;4694;52.464;13.480;2023-12-20T14:21:39;4.28;;;2.13;;
9310;SDS011;4694;52.464;13.480;2023-12-20T14:24:06;2.53;;;0.80;;
9310;SDS011;4694;52.464;13.480;2023-12-20T14:26:33;1.13;;;0.40;;
9310;SDS011;4694;52.464;13.480;2023-12-20T14:28:59;1.30;;;0.30;;
9310;SDS011;4694;52.464;13.480;2023-12-20T14:31:26;3.28;;;1.45;;
9310;SDS011;4694;52.464;13.480;2023-12-20T14:33:53;0.90;;;0.52;;
9310;SDS011;4694;52.464;13.480;2023-12-20T14:36:21;1.73;;;0.63;;
9310;SDS011;4694;52.464;13.480;2023-12-20T14:38:49;0.50;;;0.32;;
9310;SDS011;4694;52.464;13.480;2023-12-20T14:41:16;1.10;;;0.50;;
9310;SDS011;4694;52.464;13.480;2023-12-20T14:43:44;6.32;;;1.35;;
9310;SDS011;4694;52.464;13.480;2023-12-20T14:46:11;1.33;;;0.82;;
9310;SDS011;4694;52.464;13.480;2023-12-20T14:48:38;4.47;;;0.40;;
9310;SDS011;4694;52.464;13.480;2023-12-20T14:51:08;3.95;;;0.75;;
9310;SDS011;4694;52.464;13.480;2023-12-20T14:53:35;2.53;;;0.88;;
9310;SDS011;4694;52.464;13.480;2023-12-20T14:56:04;4.40;;;1.08;;
9310;SDS011;4694;52.464;13.480;2023-12-20T14:58:31;4.97;;;0.60;;
9310;SDS011;4694;52.464;13.480;2023-12-20T15:00:58;1.55;;;0.50;;
9310;SDS011;4694;52.464;13.480;2023-12-20T15:03:25;5.22;;;0.88;;